Time;durP1;ratioP1;P1;durP2;ratioP2;P2;SDS_P1;SDS_P2;PMS_P1;PMS_P2;Temp;Humidity;BMP_temperature;BMP_pressure;BME280_temperature;BME280_humidity;BME280_pressure;Samples;Min_cycle;Max_cycle;Signal;HPM_P1;HPM_P2
2022/06/18 00:01:35;;;;;;;1.80;1.40;;;21.10;99.90;;;;;;5094740;28;20395;-72
2022/06/18 00:04:21;;;;;;;1.63;0.97;;;21.20;99.90;;;;;;5094870;28;20505;-72
2022/06/18 00:06:54;;;;;;;1.67;1.40;;;21.20;99.90;;;;;;5088085;28;20459;-72
2022/06/18 00:09:23;;;;;;;1.43;1.33;;;21.20;99.90;;;;;;5075077;28;20416;-71
2022/06/18 00:14:36;;;;;;;1.40;1.30;;;21.20;99.90;;;;;;5072738;28;20408;-72
2022/06/18 00:17:14;;;;;;;1.93;1.50;;;21.20;99.90;;;;;;5070966;28;20429;-71
2022/06/18 00:19:41;;;;;;;1.60;1.50;;;21.20;99.90;;;;;;5073986;28;20197;-72
2022/06/18 00:22:09;;;;;;;2.00;1.07;;;21.20;99.90;;;;;;5090235;28;20461;-71
2022/06/18 00:24:34;;;;;;;1.63;1.40;;;21.30;99.90;;;;;;5092507;28;20444;-71
2022/06/18 00:27:00;;;;;;;1.23;1.13;;;21.30;99.90;;;;;;5092859;28;20504;-71
2022/06/18 00:29:25;;;;;;;1.30;1.20;;;21.30;99.90;;;;;;5092717;28;20679;-71
2022/06/18 00:31:51;;;;;;;2.50;1.60;;;21.30;99.90;;;;;;5092668;28;20248;-71
2022/06/18 00:34:16;;;;;;;1.57;1.47;;;21.30;99.90;;;;;;5088503;28;20939;-71
2022/06/18 00:36:43;;;;;;;1.50;1.30;;;21.30;99.90;;;;;;5077899;28;20249;-71
2022/06/18 00:39:13;;;;;;;1.37;1.10;;;21.20;99.90;;;;;;5087820;28;20165;-72
2022/06/18 00:41:42;;;;;;;2.00;1.73;;;21.20;99.90;;;;;;5090757;28;20921;-72
2022/06/18 00:44:35;;;;;;;1.27;1.17;;;21.30;99.90;;;;;;5092577;28;20400;-71
2022/06/18 00:47:22;;;;;;;1.30;1.20;;;21.30;99.90;;;;;;5092568;28;20471;-71
2022/06/18 00:50:04;;;;;;;1.60;1.50;;;21.20;99.90;;;;;;5080183;28;20514;-71
2022/06/18 00:52:40;;;;;;;1.97;1.10;;;21.20;99.90;;;;;;5076153;28;20911;-72
2022/06/18 00:55:13;;;;;;;1.30;1.20;;;21.30;99.90;;;;;;5075741;28;20435;-72
2022/06/18 00:57:52;;;;;;;1.50;1.40;;;21.20;99.90;;;;;;5074448;28;20425;-72
2022/06/18 01:00:23;;;;;;;1.90;1.00;;;21.20;99.90;;;;;;5072110;28;20755;-71
2022/06/18 01:02:50;;;;;;;2.60;1.30;;;21.20;99.90;;;;;;5076534;28;20439;-72
2022/06/18 01:05:18;;;;;;;1.47;1.17;;;21.30;99.90;;;;;;5091983;28;20477;-71
2022/06/18 01:07:46;;;;;;;4.10;1.13;;;21.30;99.90;;;;;;5092004;28;20876;-72
2022/06/18 01:10:21;;;;;;;1.87;1.60;;;21.30;99.90;;;;;;5092096;28;20407;-71
2022/06/18 01:12:47;;;;;;;1.40;1.30;;;21.30;99.90;;;;;;5092126;28;20486;-71
2022/06/18 01:15:13;;;;;;;1.20;1.10;;;21.30;99.90;;;;;;5091870;28;20496;-72
2022/06/18 01:17:40;;;;;;;1.30;1.20;;;21.30;99.90;;;;;;5090595;28;20201;-72
2022/06/18 01:20:09;;;;;;;1.47;1.37;;;21.30;99.90;;;;;;5092014;28;20894;-73
2022/06/18 01:23:01;;;;;;;1.63;1.53;;;21.30;99.90;;;;;;5090640;28;20416;-72
2022/06/18 01:25:28;;;;;;;1.53;1.30;;;21.30;99.90;;;;;;5094727;28;20402;-72
2022/06/18 01:27:55;;;;;;;1.70;1.23;;;21.20;99.90;;;;;;5091438;28;20440;-71
2022/06/18 01:30:23;;;;;;;1.50;1.30;;;21.20;99.90;;;;;;5096794;28;20400;-71
2022/06/18 01:32:51;;;;;;;1.50;1.30;;;21.30;99.90;;;;;;5076414;28;20822;-71
2022/06/18 01:35:18;;;;;;;1.37;1.23;;;21.20;99.90;;;;;;5076082;28;20887;-72
2022/06/18 01:37:46;;;;;;;1.60;1.50;;;21.20;99.90;;;;;;5090235;28;20451;-71
2022/06/18 01:40:19;;;;;;;1.40;1.30;;;21.20;99.90;;;;;;5096572;28;20400;-72
2022/06/18 01:42:47;;;;;;;3.47;1.53;;;21.20;99.90;;;;;;5099315;28;20404;-72
2022/06/18 01:45:25;;;;;;;1.70;1.47;;;21.20;99.90;;;;;;5088832;28;20417;-71
2022/06/18 01:48:03;;;;;;;1.27;1.17;;;21.20;99.90;;;;;;5075560;28;20807;-72
2022/06/18 01:50:38;;;;;;;1.37;1.20;;;21.10;99.90;;;;;;5075549;28;20408;-71
2022/06/18 01:53:18;;;;;;;1.10;0.90;;;21.10;99.90;;;;;;5078803;28;20479;-73
2022/06/18 01:55:52;;;;;;;2.57;1.60;;;21.10;99.90;;;;;;5076608;28;20400;-72
2022/06/18 01:58:25;;;;;;;1.70;1.20;;;21.10;99.90;;;;;;5089706;28;20443;-72
2022/06/18 02:00:55;;;;;;;1.70;1.60;;;21.10;99.90;;;;;;5076047;28;20388;-72
2022/06/18 02:03:21;;;;;;;1.83;1.30;;;21.10;99.90;;;;;;5075614;28;20413;-71
2022/06/18 02:05:46;;;;;;;1.40;1.13;;;21.10;99.90;;;;;;5075684;28;20448;-71
2022/06/18 02:08:16;;;;;;;1.93;1.37;;;21.00;99.90;;;;;;5078092;28;20484;-70
2022/06/18 02:10:48;;;;;;;1.40;1.30;;;21.00;99.90;;;;;;5095587;28;20166;-71
2022/06/18 02:13:14;;;;;;;1.17;0.97;;;21.00;99.90;;;;;;5095457;28;20427;-71
2022/06/18 02:15:43;;;;;;;1.20;1.07;;;21.00;99.90;;;;;;5094948;28;20770;-71
2022/06/18 02:18:12;;;;;;;1.40;1.30;;;21.00;99.90;;;;;;5095098;28;20431;-71
2022/06/18 02:20:44;;;;;;;1.27;1.17;;;21.00;99.90;;;;;;5095264;28;20886;-71
2022/06/18 02:23:11;;;;;;;1.40;1.20;;;20.90;99.90;;;;;;5086263;28;20496;-70
2022/06/18 02:25:37;;;;;;;1.43;1.33;;;20.90;99.90;;;;;;5074845;28;20396;-71
2022/06/18 02:28:29;;;;;;;1.23;1.13;;;20.90;99.90;;;;;;5074638;28;20871;-72
2022/06/18 02:31:00;;;;;;;1.90;1.13;;;20.80;99.90;;;;;;5076755;28;20204;-72
2022/06/18 02:33:44;;;;;;;1.47;1.37;;;20.70;99.90;;;;;;5077155;28;20511;-72
2022/06/18 02:36:25;;;;;;;1.00;0.87;;;20.70;99.90;;;;;;5078985;28;20408;-71
2022/06/18 02:38:58;;;;;;;1.13;0.93;;;20.60;99.90;;;;;;5098924;28;20419;-72
2022/06/18 02:41:24;;;;;;;1.00;0.80;;;20.60;99.90;;;;;;5099107;28;20415;-72
2022/06/18 02:43:51;;;;;;;1.60;1.20;;;20.50;99.90;;;;;;5101463;28;20407;-73
2022/06/18 02:46:17;;;;;;;1.30;1.20;;;20.50;99.90;;;;;;5095506;28;20466;-72
2022/06/18 02:48:43;;;;;;;1.10;1.00;;;20.50;99.90;;;;;;5094646;28;20431;-72
2022/06/18 02:51:12;;;;;;;1.97;1.70;;;20.40;99.90;;;;;;5094031;28;20407;-72
2022/06/18 02:53:38;;;;;;;1.60;1.20;;;20.40;99.90;;;;;;5094397;28;20494;-72
2022/06/18 02:56:06;;;;;;;1.17;1.07;;;20.40;99.90;;;;;;5094560;28;20403;-71
2022/06/18 02:58:42;;;;;;;2.67;1.43;;;20.40;99.90;;;;;;5095063;28;20435;-71
2022/06/18 03:01:15;;;;;;;1.67;1.57;;;20.30;99.90;;;;;;5093326;28;20514;-71
2022/06/18 03:03:45;;;;;;;1.20;1.00;;;20.30;99.90;;;;;;5093046;28;20845;-71
2022/06/18 03:06:10;;;;;;;2.30;1.00;;;20.30;99.90;;;;;;5094641;28;20462;-71
2022/06/18 03:08:37;;;;;;;1.27;1.17;;;20.30;99.90;;;;;;5097887;28;20400;-71
2022/06/18 03:13:48;;;;;;;1.30;1.20;;;20.30;99.90;;;;;;5095516;28;20395;-72
2022/06/18 03:16:17;;;;;;;1.67;1.40;;;20.30;99.90;;;;;;5096954;28;20416;-71
2022/06/18 03:18:44;;;;;;;1.40;1.30;;;20.20;99.90;;;;;;5090562;28;20257;-71
2022/06/18 03:21:47;;;;;;;1.67;1.57;;;20.20;99.90;;;;;;5072516;28;20466;-72
2022/06/18 03:24:13;;;;;;;1.37;1.23;;;20.20;99.90;;;;;;5014835;28;20434;-72
2022/06/18 03:26:39;;;;;;;1.20;1.07;;;20.20;99.90;;;;;;5065425;28;20881;-71
2022/06/18 03:29:06;;;;;;;2.10;1.40;;;20.10;99.90;;;;;;5073657;28;20661;-71
2022/06/18 03:31:33;;;;;;;1.60;1.30;;;20.10;99.90;;;;;;5073583;28;20405;-72
2022/06/18 03:33:59;;;;;;;1.33;1.23;;;20.10;99.90;;;;;;5089985;28;20420;-72
2022/06/18 03:36:25;;;;;;;1.07;0.93;;;20.10;99.90;;;;;;5094404;28;20435;-72
2022/06/18 03:38:52;;;;;;;1.40;1.30;;;20.10;99.90;;;;;;5093767;28;20166;-71
2022/06/18 03:41:19;;;;;;;1.63;1.47;;;20.10;99.90;;;;;;5093805;28;20893;-72
2022/06/18 03:43:45;;;;;;;1.33;1.07;;;20.10;99.90;;;;;;5092096;28;20443;-72
2022/06/18 03:46:14;;;;;;;1.47;1.23;;;20.10;99.90;;;;;;5073127;28;20451;-72
2022/06/18 03:48:53;;;;;;;1.30;1.20;;;20.20;99.90;;;;;;5073363;28;20397;-72
2022/06/18 03:51:19;;;;;;;1.40;1.30;;;20.20;99.90;;;;;;5072904;28;20763;-72
2022/06/18 03:53:45;;;;;;;1.23;1.13;;;20.20;99.90;;;;;;5073253;28;20918;-72
2022/06/18 03:56:13;;;;;;;1.10;1.00;;;20.20;99.90;;;;;;5076686;28;20426;-72
2022/06/18 03:58:39;;;;;;;1.43;1.20;;;20.20;99.90;;;;;;5093117;28;20264;-72
2022/06/18 04:01:05;;;;;;;2.30;1.40;;;20.20;99.90;;;;;;5093514;28;20492;-72
2022/06/18 04:03:31;;;;;;;1.57;1.43;;;20.20;99.90;;;;;;5093377;28;20446;-72
2022/06/18 04:05:56;;;;;;;1.40;1.20;;;20.30;99.90;;;;;;5092944;28;20447;-72
2022/06/18 04:08:22;;;;;;;1.73;1.33;;;20.30;99.90;;;;;;5093192;28;20173;-72
2022/06/18 04:10:48;;;;;;;1.40;1.30;;;20.30;99.90;;;;;;5083760;28;20181;-72
2022/06/18 04:13:14;;;;;;;1.53;1.43;;;20.30;99.90;;;;;;5072913;28;20227;-72
2022/06/18 04:15:41;;;;;;;1.10;0.97;;;20.30;99.90;;;;;;5072538;28;20170;-72
2022/06/18 04:18:07;;;;;;;1.20;1.10;;;20.30;99.90;;;;;;5072984;28;20947;-72
2022/06/18 04:20:36;;;;;;;1.77;1.53;;;20.40;99.90;;;;;;5072781;28;20454;-72
2022/06/18 04:23:02;;;;;;;2.13;1.40;;;20.40;99.90;;;;;;5072747;28;20436;-72
2022/06/18 04:25:28;;;;;;;1.43;1.03;;;20.50;99.90;;;;;;5087387;28;20416;-72
2022/06/18 04:27:57;;;;;;;1.30;1.20;;;20.50;99.90;;;;;;5092841;28;21030;-72
2022/06/18 04:30:24;;;;;;;2.70;1.83;;;20.60;99.90;;;;;;5092924;28;20430;-72
2022/06/18 04:32:50;;;;;;;1.70;1.30;;;20.60;99.90;;;;;;5092872;28;20762;-71
2022/06/18 04:35:16;;;;;;;1.87;1.57;;;20.70;99.90;;;;;;5091191;28;20419;-71
2022/06/18 04:37:44;;;;;;;1.57;1.23;;;20.70;99.90;;;;;;5091710;28;20622;-71
2022/06/18 04:40:14;;;;;;;1.80;1.50;;;20.80;99.90;;;;;;5072475;28;20749;-71
2022/06/18 04:42:40;;;;;;;1.53;1.00;;;20.80;99.90;;;;;;5072281;28;20408;-72
2022/06/18 04:45:06;;;;;;;1.50;1.40;;;20.90;99.90;;;;;;5072018;28;20416;-72
2022/06/18 04:47:31;;;;;;;1.43;1.27;;;21.00;99.90;;;;;;5072194;28;20580;-71
2022/06/18 04:49:58;;;;;;;1.23;1.10;;;21.10;99.90;;;;;;5072465;28;20413;-72
2022/06/18 04:52:24;;;;;;;2.10;1.60;;;21.10;99.90;;;;;;5078072;28;20206;-72
2022/06/18 04:54:52;;;;;;;1.63;1.53;;;21.20;99.90;;;;;;5091672;28;20427;-72
2022/06/18 04:57:21;;;;;;;2.40;1.63;;;21.30;99.90;;;;;;5092512;28;20415;-72
2022/06/18 04:59:47;;;;;;;2.27;1.50;;;21.40;99.90;;;;;;5092678;28;20449;-72
2022/06/18 05:02:20;;;;;;;1.93;1.50;;;21.50;99.90;;;;;;5082423;28;20412;-72
2022/06/18 05:04:45;;;;;;;3.23;1.40;;;21.60;99.90;;;;;;5070130;28;20408;-72
2022/06/18 05:07:11;;;;;;;1.70;1.50;;;21.80;99.90;;;;;;5072256;28;20509;-72
2022/06/18 05:09:36;;;;;;;1.83;1.50;;;21.80;99.90;;;;;;5072233;28;20180;-72
2022/06/18 05:12:02;;;;;;;2.07;1.43;;;21.90;99.90;;;;;;5072194;28;20162;-72
2022/06/18 05:14:28;;;;;;;1.77;1.13;;;22.00;99.90;;;;;;5082611;28;20192;-72
2022/06/18 05:16:53;;;;;;;2.17;1.43;;;22.20;99.90;;;;;;5090861;28;20477;-72
2022/06/18 05:19:27;;;;;;;1.97;1.77;;;22.20;99.90;;;;;;5092238;28;20162;-72
2022/06/18 05:21:53;;;;;;;1.30;1.10;;;22.30;99.90;;;;;;5092208;28;20644;-72
2022/06/18 05:24:19;;;;;;;1.53;1.20;;;22.50;99.90;;;;;;5091849;28;20407;-72
2022/06/18 05:26:47;;;;;;;1.40;1.10;;;22.60;99.90;;;;;;5091897;28;20483;-72
2022/06/18 05:29:13;;;;;;;1.40;1.30;;;22.70;99.90;;;;;;5075919;28;20664;-72
2022/06/18 05:31:39;;;;;;;1.27;1.13;;;22.80;99.90;;;;;;5070521;28;20490;-72
2022/06/18 05:34:04;;;;;;;1.37;1.23;;;22.90;99.90;;;;;;5071912;28;20162;-72
2022/06/18 05:36:30;;;;;;;1.40;1.30;;;23.10;99.90;;;;;;5071450;28;20178;-72
2022/06/18 05:38:57;;;;;;;1.37;1.27;;;23.20;99.90;;;;;;5071812;28;20166;-72
2022/06/18 05:41:23;;;;;;;1.30;1.10;;;23.30;99.90;;;;;;5073759;28;20177;-72
2022/06/18 05:43:49;;;;;;;1.47;1.10;;;23.50;99.90;;;;;;5091629;28;20433;-72
2022/06/18 05:46:15;;;;;;;1.60;1.50;;;23.60;99.90;;;;;;5091340;28;20499;-72
2022/06/18 05:48:41;;;;;;;1.00;0.80;;;23.70;99.90;;;;;;5091794;28;20169;-72
2022/06/18 05:51:07;;;;;;;1.37;1.00;;;23.90;99.90;;;;;;5091810;28;20400;-72
2022/06/18 05:53:32;;;;;;;1.43;1.10;;;24.10;99.90;;;;;;5091762;28;20812;-72
2022/06/18 05:55:58;;;;;;;1.20;1.10;;;24.20;99.90;;;;;;5082757;28;20622;-72
2022/06/18 05:58:23;;;;;;;1.20;1.10;;;24.30;99.90;;;;;;5071621;28;20174;-72
2022/06/18 06:00:49;;;;;;;1.60;1.50;;;24.50;99.90;;;;;;5071477;28;20166;-72
2022/06/18 06:03:14;;;;;;;2.13;1.40;;;24.80;99.90;;;;;;5071482;28;20193;-72
2022/06/18 06:05:40;;;;;;;1.60;1.50;;;25.00;99.90;;;;;;5071068;28;20170;-72
2022/06/18 06:08:06;;;;;;;1.60;1.37;;;25.30;99.90;;;;;;5071231;28;20186;-72
2022/06/18 06:13:19;;;;;;;2.67;1.67;;;25.90;99.90;;;;;;5091837;28;20485;-72
2022/06/18 06:15:45;;;;;;;3.87;1.37;;;26.20;99.90;;;;;;5094197;28;20407;-72
2022/06/18 06:18:13;;;;;;;2.40;2.17;;;26.50;99.90;;;;;;5095118;28;20476;-73
2022/06/18 06:20:41;;;;;;;1.37;1.27;;;26.80;99.90;;;;;;5093973;28;20415;-73
2022/06/18 06:23:08;;;;;;;1.97;1.77;;;27.10;99.90;;;;;;5093224;28;20410;-73
2022/06/18 06:25:34;;;;;;;1.40;1.30;;;27.40;99.90;;;;;;5073346;28;20430;-72
2022/06/18 06:28:00;;;;;;;1.93;1.70;;;27.70;99.90;;;;;;5074830;28;20957;-73
2022/06/18 06:30:26;;;;;;;1.40;1.30;;;28.10;99.90;;;;;;5075226;28;20392;-73
2022/06/18 06:32:52;;;;;;;2.00;1.53;;;28.60;99.90;;;;;;5075059;28;20249;-73
2022/06/18 06:35:18;;;;;;;3.10;1.70;;;29.00;99.90;;;;;;5074783;28;20208;-73
2022/06/18 06:37:43;;;;;;;2.03;1.73;;;29.40;99.90;;;;;;5079840;28;20874;-73
2022/06/18 06:40:10;;;;;;;1.93;1.40;;;29.80;99.90;;;;;;5095055;28;20169;-73
2022/06/18 06:42:47;;;;;;;2.77;1.33;;;30.30;99.90;;;;;;5095154;28;20185;-73
2022/06/18 06:45:22;;;;;;;1.63;1.53;;;30.80;99.90;;;;;;5093419;28;20427;-73
2022/06/18 06:47:48;;;;;;;2.03;1.83;;;31.30;99.90;;;;;;5094791;28;21030;-73
2022/06/18 06:50:16;;;;;;;1.50;1.40;;;31.80;98.90;;;;;;5094860;28;20407;-73
2022/06/18 06:52:42;;;;;;;1.63;1.53;;;32.30;96.70;;;;;;5092784;28;20469;-73
2022/06/18 06:58:04;;;;;;;1.90;1.77;;;33.20;92.30;;;;;;5094690;28;20430;-71
2022/06/18 07:00:32;;;;;;;1.43;1.33;;;33.70;90.00;;;;;;5094573;28;20770;-71
2022/06/18 07:02:58;;;;;;;1.60;1.40;;;34.20;85.10;;;;;;5094501;28;20453;-73
2022/06/18 07:05:23;;;;;;;1.60;1.50;;;34.60;80.30;;;;;;5094073;28;20408;-73
2022/06/18 07:07:49;;;;;;;1.90;1.80;;;35.00;75.70;;;;;;5079945;28;20210;-73
2022/06/18 07:10:15;;;;;;;1.83;1.73;;;35.50;72.20;;;;;;5074169;28;20324;-73
2022/06/18 07:12:40;;;;;;;1.83;1.63;;;35.80;66.70;;;;;;5072776;28;20178;-73
2022/06/18 07:15:07;;;;;;;1.77;1.67;;;36.20;64.00;;;;;;5073720;28;20216;-73
2022/06/18 07:17:33;;;;;;;2.77;1.90;;;36.70;61.50;;;;;;5074163;28;20214;-74
2022/06/18 07:19:59;;;;;;;1.73;1.63;;;37.10;58.90;;;;;;5072532;28;20412;-73
2022/06/18 07:22:25;;;;;;;2.07;1.90;;;37.50;57.00;;;;;;5089612;28;20481;-74
2022/06/18 07:24:51;;;;;;;1.90;1.80;;;37.90;54.90;;;;;;5093544;28;20251;-74
2022/06/18 07:27:17;;;;;;;1.60;1.50;;;38.30;52.60;;;;;;5092817;28;20961;-73
2022/06/18 07:29:42;;;;;;;2.20;2.10;;;38.80;51.10;;;;;;5093927;28;20679;-74
2022/06/18 07:32:14;;;;;;;1.90;1.80;;;39.30;50.30;;;;;;5093892;28;20427;-74
2022/06/18 07:34:39;;;;;;;1.80;1.70;;;39.80;49.80;;;;;;5089605;28;20189;-74
2022/06/18 07:37:05;;;;;;;1.77;1.67;;;40.40;48.50;;;;;;5072239;28;20429;-74
2022/06/18 07:39:31;;;;;;;3.83;2.10;;;41.00;47.80;;;;;;5073495;28;20170;-74
2022/06/18 07:41:57;;;;;;;2.30;2.10;;;41.50;46.70;;;;;;5073499;28;20654;-72
2022/06/18 07:44:24;;;;;;;2.63;1.87;;;42.10;45.80;;;;;;5073203;28;20182;-73
2022/06/18 07:46:52;;;;;;;2.10;1.90;;;42.70;44.30;;;;;;5073245;28;20285;-73
2022/06/18 07:49:18;;;;;;;2.33;2.17;;;43.30;43.20;;;;;;5080123;28;20452;-73
2022/06/18 07:51:44;;;;;;;1.70;1.60;;;43.90;42.00;;;;;;5093559;28;20441;-73
2022/06/18 07:54:15;;;;;;;1.67;1.57;;;44.40;40.70;;;;;;5093268;28;20424;-73
2022/06/18 07:56:40;;;;;;;1.73;1.63;;;45.10;40.10;;;;;;5093392;28;20463;-73
2022/06/18 07:59:06;;;;;;;2.00;1.80;;;45.60;39.10;;;;;;5093284;28;20407;-73
2022/06/18 08:01:32;;;;;;;1.70;1.60;;;46.20;38.00;;;;;;5093303;28;20177;-73
2022/06/18 08:03:57;;;;;;;1.93;1.83;;;46.90;37.50;;;;;;5081808;28;20174;-73
2022/06/18 08:06:23;;;;;;;1.80;1.70;;;47.60;36.90;;;;;;5072566;28;20209;-73
2022/06/18 08:08:48;;;;;;;1.97;1.80;;;48.20;36.00;;;;;;5072913;28;20167;-73
2022/06/18 08:11:16;;;;;;;2.23;2.03;;;48.80;35.20;;;;;;5072847;28;20244;-73
2022/06/18 08:13:42;;;;;;;2.17;2.07;;;49.30;33.70;;;;;;5072821;28;20165;-73
2022/06/18 08:16:10;;;;;;;2.03;1.93;;;49.70;33.00;;;;;;5072407;28;20742;-73
2022/06/18 08:18:36;;;;;;;2.50;2.30;;;50.20;32.80;;;;;;5086894;28;20416;-73
2022/06/18 08:21:15;;;;;;;2.90;1.87;;;50.70;31.10;;;;;;5092931;28;20453;-73
2022/06/18 08:23:41;;;;;;;2.60;2.43;;;51.20;30.80;;;;;;5092941;28;20848;-73
2022/06/18 08:26:07;;;;;;;1.70;1.60;;;51.70;30.00;;;;;;5092402;28;20475;-73
2022/06/18 08:28:35;;;;;;;2.57;2.47;;;52.10;29.70;;;;;;5092824;28;20201;-73
2022/06/18 08:31:02;;;;;;;2.30;2.20;;;52.60;29.10;;;;;;5091419;28;20407;-73
2022/06/18 08:33:29;;;;;;;2.10;2.00;;;53.00;28.80;;;;;;5073134;28;20419;-73
2022/06/18 08:36:00;;;;;;;2.80;2.60;;;53.50;28.40;;;;;;5072192;28;20499;-73
2022/06/18 08:38:26;;;;;;;2.00;1.90;;;53.90;28.00;;;;;;5072308;28;20414;-74
2022/06/18 08:41:25;;;;;;;2.10;2.00;;;54.40;27.90;;;;;;5072353;28;20408;-74
2022/06/18 08:43:58;;;;;;;2.50;2.40;;;54.90;27.50;;;;;;5072289;28;20174;-74
2022/06/18 08:46:38;;;;;;;2.43;2.23;;;55.20;26.70;;;;;;5082050;28;20479;-74
2022/06/18 08:49:28;;;;;;;2.47;2.30;;;55.50;26.70;;;;;;5092617;28;20421;-74
2022/06/18 08:52:21;;;;;;;2.63;2.43;;;56.00;26.50;;;;;;5092390;28;20913;-74
2022/06/18 08:54:58;;;;;;;2.13;2.03;;;56.50;26.10;;;;;;5092096;28;20415;-74
2022/06/18 08:57:29;;;;;;;2.80;2.60;;;56.80;25.30;;;;;;5090985;28;20945;-74
2022/06/18 09:00:12;;;;;;;2.60;2.40;;;57.10;25.00;;;;;;5085242;28;20451;-74
2022/06/18 09:02:55;;;;;;;2.37;2.27;;;57.40;24.90;;;;;;5088276;28;20408;-74
2022/06/18 09:05:49;;;;;;;2.60;2.50;;;57.80;24.90;;;;;;5092035;28;20421;-74
2022/06/18 09:08:33;;;;;;;3.00;2.80;;;58.20;25.00;;;;;;5053731;28;20450;-74
2022/06/18 09:11:21;;;;;;;3.47;3.27;;;58.80;24.80;;;;;;5092193;28;20394;-74
2022/06/18 09:14:06;;;;;;;2.80;2.70;;;59.30;24.20;;;;;;5084040;28;20423;-74
2022/06/18 09:16:39;;;;;;;3.00;2.80;;;59.30;23.30;;;;;;5071585;28;20478;-74
2022/06/18 09:19:11;;;;;;;3.70;3.40;;;59.60;23.10;;;;;;5072050;28;20388;-73
2022/06/18 09:21:46;;;;;;;3.17;3.03;;;59.70;22.30;;;;;;5070655;28;20405;-74
2022/06/18 09:24:18;;;;;;;3.10;3.00;;;59.70;22.30;;;;;;5071819;28;20482;-72
2022/06/18 09:26:49;;;;;;;3.60;3.30;;;59.80;22.20;;;;;;5071883;28;20427;-72
2022/06/18 09:29:32;;;;;;;3.20;3.00;;;59.90;22.00;;;;;;5090639;28;20422;-72
2022/06/18 09:32:05;;;;;;;2.97;2.77;;;60.00;22.20;;;;;;5092218;28;20790;-73
2022/06/18 09:34:45;;;;;;;3.40;3.20;;;60.10;21.90;;;;;;5091719;28;20413;-71
2022/06/18 09:37:21;;;;;;;3.80;3.50;;;60.10;21.60;;;;;;5091808;28;20533;-72
2022/06/18 09:39:55;;;;;;;2.90;2.80;;;60.20;21.90;;;;;;5091950;28;20836;-72
2022/06/18 09:42:45;;;;;;;3.57;3.40;;;60.50;21.90;;;;;;5084645;28;20411;-73
2022/06/18 09:45:22;;;;;;;3.30;3.10;;;60.60;21.90;;;;;;5071929;28;20755;-72
2022/06/18 09:47:49;;;;;;;3.43;3.33;;;60.90;22.20;;;;;;5071670;28;20916;-72
2022/06/18 09:50:37;;;;;;;3.90;3.70;;;61.20;22.10;;;;;;5073610;28;20414;-71
2022/06/18 09:53:28;;;;;;;3.53;3.33;;;61.20;21.40;;;;;;5075521;28;20404;-72
2022/06/18 09:56:07;;;;;;;4.37;4.17;;;61.10;21.10;;;;;;5078371;28;20410;-72
2022/06/18 09:58:45;;;;;;;3.90;3.70;;;61.10;21.30;;;;;;5095785;28;20486;-73
2022/06/18 10:01:18;;;;;;;4.07;3.93;;;61.20;21.50;;;;;;5095776;28;20430;-72
2022/06/18 10:09:48;;;;;;;3.90;3.70;;;61.50;21.40;;;;;;5088046;28;20430;-73
2022/06/18 10:12:37;;;;;;;3.97;3.77;;;61.60;21.40;;;;;;5076166;28;20452;-72
2022/06/18 10:15:06;;;;;;;4.50;4.30;;;61.80;21.60;;;;;;5074857;28;20399;-72
2022/06/18 10:17:56;;;;;;;4.50;4.30;;;61.80;21.60;;;;;;5093858;28;20459;-72
2022/06/18 10:21:00;;;;;;;4.27;4.07;;;62.00;21.00;;;;;;5095328;28;20394;-72
2022/06/18 10:23:29;;;;;;;4.43;4.17;;;62.00;21.00;;;;;;5079465;28;20415;-72
2022/06/18 10:26:11;;;;;;;4.63;4.43;;;61.80;20.50;;;;;;5076285;28;20763;-72
2022/06/18 10:29:00;;;;;;;3.60;3.50;;;61.80;20.70;;;;;;5095203;28;20476;-71
2022/06/18 10:32:08;;;;;;;4.40;3.93;;;61.80;20.90;;;;;;5098349;28;20391;-71
2022/06/18 10:35:01;;;;;;;4.17;3.97;;;61.90;20.80;;;;;;5077680;28;21021;-71
2022/06/18 10:37:27;;;;;;;4.97;4.67;;;62.00;20.90;;;;;;5074713;28;20569;-72
2022/06/18 10:40:16;;;;;;;4.47;4.03;;;62.20;20.90;;;;;;5078652;28;20438;-73
2022/06/18 10:42:48;;;;;;;5.43;5.13;;;62.30;20.80;;;;;;5081245;28;20648;-73
2022/06/18 10:45:37;;;;;;;5.07;4.67;;;62.50;20.60;;;;;;5078358;28;20400;-72
2022/06/18 10:48:12;;;;;;;4.87;4.67;;;62.60;20.80;;;;;;5082273;28;20434;-73
2022/06/18 10:50:48;;;;;;;4.80;4.60;;;62.60;20.50;;;;;;5095005;28;20485;-71
2022/06/18 10:53:17;;;;;;;6.17;5.87;;;62.60;20.20;;;;;;5094622;28;20414;-71
2022/06/18 10:55:44;;;;;;;5.40;5.10;;;62.30;19.50;;;;;;5094212;28;20430;-71
2022/06/18 10:58:15;;;;;;;5.10;4.80;;;62.10;19.50;;;;;;5100028;28;21034;-72
2022/06/18 11:00:55;;;;;;;5.03;4.83;;;62.00;19.70;;;;;;5097656;28;20419;-72
2022/06/18 11:03:25;;;;;;;4.37;4.17;;;61.90;20.00;;;;;;5081920;28;20407;-72
2022/06/18 11:05:50;;;;;;;4.10;4.00;;;62.10;20.40;;;;;;5074696;28;20446;-71
2022/06/18 11:08:24;;;;;;;4.20;4.10;;;62.30;20.40;;;;;;5074195;28;20424;-71
2022/06/18 11:10:56;;;;;;;4.50;4.30;;;62.60;20.30;;;;;;5074243;28;20162;-71
2022/06/18 11:13:35;;;;;;;5.77;5.37;;;62.80;20.10;;;;;;5074125;28;20403;-71
2022/06/18 11:16:12;;;;;;;4.73;4.53;;;62.80;19.60;;;;;;5086094;28;20463;-71
2022/06/18 11:18:54;;;;;;;4.93;4.67;;;62.70;19.50;;;;;;5094192;28;20391;-70
2022/06/18 11:21:34;;;;;;;4.30;4.10;;;62.70;19.70;;;;;;5094130;28;20406;-71
2022/06/18 11:24:05;;;;;;;4.80;4.60;;;62.70;19.40;;;;;;5092845;28;20766;-72
2022/06/18 11:26:31;;;;;;;4.43;4.23;;;62.70;19.70;;;;;;5097722;28;20434;-72
2022/06/18 11:29:07;;;;;;;4.90;4.70;;;63.00;20.00;;;;;;5093511;28;20418;-72
2022/06/18 11:31:36;;;;;;;4.50;4.10;;;63.20;20.00;;;;;;5094000;28;20405;-71
2022/06/18 11:34:17;;;;;;;4.93;4.73;;;63.20;19.50;;;;;;5097207;28;20407;-71
2022/06/18 11:36:47;;;;;;;4.33;4.13;;;63.10;19.40;;;;;;5093722;28;20517;-72
2022/06/18 11:39:36;;;;;;;4.50;4.30;;;63.10;19.60;;;;;;5093784;28;20388;-71
2022/06/18 11:42:36;;;;;;;3.97;3.77;;;63.20;20.00;;;;;;5080730;28;20473;-71
2022/06/18 11:45:35;;;;;;;4.00;3.90;;;63.40;20.10;;;;;;5073443;28;20450;-71
2022/06/18 11:48:03;;;;;;;6.10;5.80;;;63.60;20.20;;;;;;5073438;28;20591;-70
2022/06/18 11:50:44;;;;;;;4.80;4.60;;;63.70;20.70;;;;;;5073303;28;20465;-71
2022/06/18 11:53:23;;;;;;;5.07;4.87;;;63.80;20.20;;;;;;5074702;28;20174;-72
2022/06/18 11:55:53;;;;;;;5.32;4.97;;;63.80;20.20;;;;;;5089649;28;20425;-70
2022/06/18 11:58:40;;;;;;;4.90;4.68;;;64.00;20.20;;;;;;5093070;28;20184;-70
2022/06/18 12:01:47;;;;;;;5.50;5.10;;;63.80;20.10;;;;;;5093986;28;20445;-73
2022/06/18 12:04:31;;;;;;;4.85;4.65;;;63.70;20.10;;;;;;5100494;28;20176;-72
2022/06/18 12:07:01;;;;;;;4.53;4.32;;;63.70;20.20;;;;;;5103356;28;20651;-72
2022/06/18 12:09:28;;;;;;;5.68;5.47;;;63.70;20.20;;;;;;5099368;28;20169;-71
2022/06/18 12:12:12;;;;;;;5.50;5.20;;;63.70;20.30;;;;;;5078277;28;20428;-72
2022/06/18 12:14:48;;;;;;;5.53;5.23;;;63.60;20.30;;;;;;5078979;28;20403;-72
2022/06/18 12:17:27;;;;;;;4.45;4.35;;;63.40;20.40;;;;;;5073142;28;20479;-72
2022/06/18 12:20:07;;;;;;;4.47;4.27;;;63.40;20.50;;;;;;5081900;28;20165;-71
2022/06/18 12:22:48;;;;;;;4.93;4.73;;;63.30;20.60;;;;;;5074333;28;20396;-71
2022/06/18 12:25:31;;;;;;;5.60;5.30;;;63.20;20.60;;;;;;5089150;28;20658;-71
2022/06/18 12:28:13;;;;;;;5.17;4.97;;;63.10;20.70;;;;;;5092975;28;20423;-71
2022/06/18 12:31:01;;;;;;;4.50;4.40;;;63.00;20.70;;;;;;5092940;28;20409;-70
2022/06/18 12:33:33;;;;;;;4.43;4.23;;;62.70;20.60;;;;;;5092806;28;20395;-71
2022/06/18 12:36:08;;;;;;;4.47;4.37;;;62.60;20.70;;;;;;5092460;28;20414;-71
2022/06/18 12:38:50;;;;;;;4.43;4.23;;;62.50;20.60;;;;;;5082527;28;20940;-71
2022/06/18 12:41:38;;;;;;;4.60;4.30;;;62.40;20.60;;;;;;5072474;28;20485;-70
2022/06/18 12:44:12;;;;;;;4.63;4.27;;;62.20;20.70;;;;;;5072361;28;20411;-70
2022/06/18 12:47:12;;;;;;;4.70;4.50;;;61.80;20.30;;;;;;5074806;28;20419;-72
2022/06/18 12:49:53;;;;;;;4.13;3.93;;;61.30;19.80;;;;;;5072303;28;20415;-71
2022/06/18 12:52:43;;;;;;;3.77;3.60;;;60.80;19.90;;;;;;5077061;28;20522;-71
2022/06/18 12:55:14;;;;;;;3.23;3.03;;;60.40;20.30;;;;;;5091855;28;20915;-71
2022/06/18 12:58:09;;;;;;;3.53;3.33;;;60.30;20.80;;;;;;5092880;28;20462;-71
2022/06/18 13:00:45;;;;;;;3.70;3.50;;;60.10;21.00;;;;;;5098004;28;20395;-72
2022/06/18 13:03:21;;;;;;;4.03;3.80;;;59.70;21.00;;;;;;5098996;28;20395;-72
2022/06/18 13:05:59;;;;;;;3.83;3.63;;;58.90;20.80;;;;;;5097731;28;20485;-72
2022/06/18 13:08:33;;;;;;;3.27;3.07;;;58.00;20.90;;;;;;5075060;28;20451;-73
2022/06/18 13:11:05;;;;;;;3.47;3.20;;;57.20;21.30;;;;;;5072735;28;20430;-71
2022/06/18 13:13:59;;;;;;;2.30;2.20;;;56.30;21.60;;;;;;5074646;28;20949;-71
2022/06/18 13:16:32;;;;;;;2.30;2.20;;;55.50;22.10;;;;;;5073798;28;20466;-71
2022/06/18 13:19:06;;;;;;;2.80;2.60;;;54.60;22.50;;;;;;5070696;28;20413;-70
2022/06/18 13:21:31;;;;;;;2.20;2.10;;;53.80;22.90;;;;;;5083706;28;20429;-72
2022/06/18 13:29:29;;;;;;;2.67;2.47;;;51.40;23.60;;;;;;5092172;28;20508;-71
2022/06/18 13:32:10;;;;;;;2.47;1.97;;;50.60;24.00;;;;;;5090627;28;20506;-70
2022/06/18 13:34:58;;;;;;;1.97;1.87;;;49.90;24.30;;;;;;5093083;28;20268;-71
2022/06/18 13:37:38;;;;;;;2.30;2.20;;;49.30;24.70;;;;;;5071494;28;20452;-71